sensor_id;sensor_type;location;lat;lon;timestamp;P1;durP1;ratioP1;P2;durP2;ratioP2
42000;SDS011;27689;48.390;10.856;2023-06-10T14:52:18;4.32;;;2.83;;
42000;SDS011;27689;48.390;10.856;2023-06-10T14:55:02;3.25;;;2.95;;
42000;SDS011;27689;48.390;10.856;2023-06-10T14:57:46;3.30;;;3.00;;
42000;SDS011;27689;48.390;10.856;2023-06-10T15:00:30;3.88;;;3.47;;
42000;SDS011;27689;48.390;10.856;2023-06-10T15:03:14;4.83;;;3.90;;
42000;SDS011;27689;48.390;10.856;2023-06-10T15:05:58;5.07;;;4.00;;
42000;SDS011;27689;48.390;10.856;2023-06-10T15:08:43;4.10;;;3.70;;
42000;SDS011;27689;48.390;10.856;2023-06-10T15:11:28;4.45;;;4.10;;
42000;SDS011;27689;48.390;10.856;2023-06-10T15:14:13;5.68;;;4.55;;
42000;SDS011;27689;48.390;10.856;2023-06-10T15:16:57;5.23;;;4.20;;
42000;SDS011;27689;48.390;10.856;2023-06-10T15:19:42;3.35;;;3.13;;
42000;SDS011;27689;48.390;10.856;2023-06-10T15:22:26;6.73;;;4.00;;
42000;SDS011;27689;48.390;10.856;2023-06-10T15:25:13;5.93;;;3.80;;
42000;SDS011;27689;48.390;10.856;2023-06-10T15:27:57;5.05;;;4.40;;
42000;SDS011;27689;48.390;10.856;2023-06-10T15:30:41;4.87;;;4.03;;
42000;SDS011;27689;48.390;10.856;2023-06-10T15:33:25;5.57;;;4.93;;
42000;SDS011;27689;48.390;10.856;2023-06-10T15:36:09;4.40;;;3.95;;
42000;SDS011;27689;48.390;10.856;2023-06-10T15:38:54;3.90;;;3.43;;
42000;SDS011;27689;48.390;10.856;2023-06-10T15:41:52;3.90;;;3.50;;
42000;SDS011;27689;48.390;10.856;2023-06-10T15:45:21;4.60;;;3.47;;
42000;SDS011;27689;48.390;10.856;2023-06-10T15:48:25;3.83;;;3.00;;
42000;SDS011;27689;48.390;10.856;2023-06-10T15:58:40;4.63;;;3.35;;
42000;SDS011;27689;48.390;10.856;2023-06-10T16:15:41;4.60;;;4.15;;
42000;SDS011;27689;48.390;10.856;2023-06-10T16:19:03;5.38;;;4.88;;
42000;SDS011;27689;48.390;10.856;2023-06-10T16:21:59;6.72;;;5.20;;
42000;SDS011;27689;48.390;10.856;2023-06-10T16:24:44;6.38;;;4.65;;
42000;SDS011;27689;48.390;10.856;2023-06-10T16:27:30;4.80;;;4.40;;
42000;SDS011;27689;48.390;10.856;2023-06-10T16:30:31;4.60;;;4.20;;
42000;SDS011;27689;48.390;10.856;2023-06-10T16:33:19;6.55;;;4.57;;
42000;SDS011;27689;48.390;10.856;2023-06-10T16:39:38;5.13;;;4.60;;
42000;SDS011;27689;48.390;10.856;2023-06-10T16:42:28;5.78;;;4.72;;
42000;SDS011;27689;48.390;10.856;2023-06-10T16:45:33;4.43;;;4.03;;
42000;SDS011;27689;48.390;10.856;2023-06-10T16:48:19;5.18;;;4.68;;
42000;SDS011;27689;48.390;10.856;2023-06-10T16:51:11;5.20;;;4.70;;
42000;SDS011;27689;48.390;10.856;2023-06-10T16:54:15;4.55;;;4.15;;
42000;SDS011;27689;48.390;10.856;2023-06-10T16:56:59;4.50;;;4.10;;
42000;SDS011;27689;48.390;10.856;2023-06-10T16:59:43;4.82;;;4.28;;
42000;SDS011;27689;48.390;10.856;2023-06-10T17:02:51;6.20;;;4.15;;
42000;SDS011;27689;48.390;10.856;2023-06-10T17:05:35;4.50;;;4.10;;
42000;SDS011;27689;48.390;10.856;2023-06-10T17:08:19;5.53;;;4.45;;
42000;SDS011;27689;48.390;10.856;2023-06-10T17:11:03;3.97;;;3.67;;
42000;SDS011;27689;48.390;10.856;2023-06-10T17:13:47;4.57;;;3.70;;
42000;SDS011;27689;48.390;10.856;2023-06-10T17:16:30;4.83;;;4.33;;
42000;SDS011;27689;48.390;10.856;2023-06-10T17:19:15;4.53;;;3.83;;
42000;SDS011;27689;48.390;10.856;2023-06-10T17:21:59;4.50;;;4.10;;
42000;SDS011;27689;48.390;10.856;2023-06-10T17:24:43;5.90;;;4.55;;
42000;SDS011;27689;48.390;10.856;2023-06-10T17:27:26;5.35;;;4.85;;
42000;SDS011;27689;48.390;10.856;2023-06-10T17:30:13;6.10;;;4.40;;
42000;SDS011;27689;48.390;10.856;2023-06-10T17:32:59;5.68;;;4.47;;
42000;SDS011;27689;48.390;10.856;2023-06-10T17:36:06;5.13;;;4.72;;
42000;SDS011;27689;48.390;10.856;2023-06-10T17:39:31;4.90;;;4.45;;
42000;SDS011;27689;48.390;10.856;2023-06-10T17:42:15;5.00;;;4.50;;
42000;SDS011;27689;48.390;10.856;2023-06-10T17:44:59;4.27;;;3.87;;
42000;SDS011;27689;48.390;10.856;2023-06-10T17:47:46;4.80;;;3.90;;
42000;SDS011;27689;48.390;10.856;2023-06-10T17:50:30;5.65;;;3.92;;
42000;SDS011;27689;48.390;10.856;2023-06-10T17:53:21;4.00;;;3.60;;
42000;SDS011;27689;48.390;10.856;2023-06-10T17:56:08;7.55;;;4.35;;
42000;SDS011;27689;48.390;10.856;2023-06-10T17:58:52;5.50;;;4.38;;
42000;SDS011;27689;48.390;10.856;2023-06-10T18:01:36;5.15;;;4.35;;
42000;SDS011;27689;48.390;10.856;2023-06-10T18:04:20;5.43;;;4.60;;
42000;SDS011;27689;48.390;10.856;2023-06-10T18:07:04;4.87;;;4.47;;
42000;SDS011;27689;48.390;10.856;2023-06-10T18:09:49;5.05;;;4.15;;
42000;SDS011;27689;48.390;10.856;2023-06-10T18:12:33;4.50;;;4.10;;
42000;SDS011;27689;48.390;10.856;2023-06-10T18:15:17;6.43;;;4.40;;
42000;SDS011;27689;48.390;10.856;2023-06-10T18:18:01;4.60;;;4.15;;
42000;SDS011;27689;48.390;10.856;2023-06-10T18:20:46;4.20;;;3.80;;
42000;SDS011;27689;48.390;10.856;2023-06-10T18:23:29;4.60;;;4.20;;
42000;SDS011;27689;48.390;10.856;2023-06-10T18:26:14;4.87;;;4.43;;
42000;SDS011;27689;48.390;10.856;2023-06-10T18:28:58;4.07;;;3.75;;
42000;SDS011;27689;48.390;10.856;2023-06-10T18:31:42;4.80;;;4.40;;
42000;SDS011;27689;48.390;10.856;2023-06-10T18:34:26;4.85;;;4.45;;
42000;SDS011;27689;48.390;10.856;2023-06-10T18:37:10;4.55;;;4.15;;
42000;SDS011;27689;48.390;10.856;2023-06-10T18:39:54;7.20;;;5.20;;
42000;SDS011;27689;48.390;10.856;2023-06-10T18:42:38;5.07;;;3.90;;
42000;SDS011;27689;48.390;10.856;2023-06-10T18:45:22;5.20;;;4.70;;
42000;SDS011;27689;48.390;10.856;2023-06-10T18:48:07;4.57;;;4.18;;
42000;SDS011;27689;48.390;10.856;2023-06-10T18:50:51;4.93;;;4.53;;
42000;SDS011;27689;48.390;10.856;2023-06-10T18:53:35;4.73;;;4.33;;
42000;SDS011;27689;48.390;10.856;2023-06-10T18:56:19;4.88;;;4.28;;
42000;SDS011;27689;48.390;10.856;2023-06-10T18:59:02;4.73;;;4.20;;
42000;SDS011;27689;48.390;10.856;2023-06-10T19:01:46;5.63;;;4.50;;
42000;SDS011;27689;48.390;10.856;2023-06-10T19:04:31;5.47;;;4.97;;
42000;SDS011;27689;48.390;10.856;2023-06-10T19:07:15;4.40;;;4.00;;
42000;SDS011;27689;48.390;10.856;2023-06-10T19:09:58;4.43;;;4.03;;
42000;SDS011;27689;48.390;10.856;2023-06-10T19:12:42;5.68;;;5.10;;
42000;SDS011;27689;48.390;10.856;2023-06-10T19:15:26;5.40;;;4.90;;
42000;SDS011;27689;48.390;10.856;2023-06-10T19:18:10;4.68;;;4.28;;
42000;SDS011;27689;48.390;10.856;2023-06-10T19:20:54;4.97;;;4.43;;
42000;SDS011;27689;48.390;10.856;2023-06-10T19:23:38;5.43;;;4.78;;
42000;SDS011;27689;48.390;10.856;2023-06-10T19:26:23;5.45;;;4.95;;
42000;SDS011;27689;48.390;10.856;2023-06-10T19:29:07;4.85;;;4.45;;
42000;SDS011;27689;48.390;10.856;2023-06-10T19:31:51;6.28;;;4.50;;
42000;SDS011;27689;48.390;10.856;2023-06-10T19:34:35;5.30;;;4.80;;
42000;SDS011;27689;48.390;10.856;2023-06-10T19:37:19;6.07;;;4.40;;
42000;SDS011;27689;48.390;10.856;2023-06-10T19:40:09;5.07;;;4.57;;
42000;SDS011;27689;48.390;10.856;2023-06-10T19:42:54;5.47;;;4.97;;
42000;SDS011;27689;48.390;10.856;2023-06-10T19:45:38;6.13;;;4.87;;
42000;SDS011;27689;48.390;10.856;2023-06-10T19:48:24;6.32;;;5.72;;
42000;SDS011;27689;48.390;10.856;2023-06-10T19:51:08;7.20;;;6.47;;
42000;SDS011;27689;48.390;10.856;2023-06-10T19:53:52;7.15;;;6.45;;
42000;SDS011;27689;48.390;10.856;2023-06-10T19:56:40;5.50;;;5.00;;
42000;SDS011;27689;48.390;10.856;2023-06-10T19:59:24;5.43;;;4.93;;
42000;SDS011;27689;48.390;10.856;2023-06-10T20:02:08;8.20;;;5.17;;
42000;SDS011;27689;48.390;10.856;2023-06-10T20:04:52;5.40;;;4.90;;
42000;SDS011;27689;48.390;10.856;2023-06-10T20:07:36;6.03;;;5.53;;
42000;SDS011;27689;48.390;10.856;2023-06-10T20:10:20;5.80;;;5.30;;
42000;SDS011;27689;48.390;10.856;2023-06-10T20:13:04;8.20;;;5.07;;
42000;SDS011;27689;48.390;10.856;2023-06-10T20:15:48;5.60;;;5.05;;
42000;SDS011;27689;48.390;10.856;2023-06-10T20:18:34;6.32;;;5.72;;
42000;SDS011;27689;48.390;10.856;2023-06-10T20:21:18;6.63;;;5.38;;
42000;SDS011;27689;48.390;10.856;2023-06-10T20:24:06;5.75;;;5.15;;
42000;SDS011;27689;48.390;10.856;2023-06-10T20:29:35;6.88;;;5.50;;
42000;SDS011;27689;48.390;10.856;2023-06-10T20:32:18;6.35;;;5.75;;
42000;SDS011;27689;48.390;10.856;2023-06-10T20:35:03;5.77;;;5.13;;
42000;SDS011;27689;48.390;10.856;2023-06-10T20:37:47;7.25;;;5.93;;
42000;SDS011;27689;48.390;10.856;2023-06-10T20:40:33;7.00;;;5.57;;
42000;SDS011;27689;48.390;10.856;2023-06-10T20:43:17;6.07;;;5.47;;
42000;SDS011;27689;48.390;10.856;2023-06-10T20:46:01;7.97;;;5.73;;
42000;SDS011;27689;48.390;10.856;2023-06-10T20:48:45;6.20;;;5.60;;
42000;SDS011;27689;48.390;10.856;2023-06-10T20:51:29;7.53;;;6.37;;
42000;SDS011;27689;48.390;10.856;2023-06-10T20:54:13;8.03;;;6.40;;
42000;SDS011;27689;48.390;10.856;2023-06-10T20:56:57;6.63;;;6.00;;
42000;SDS011;27689;48.390;10.856;2023-06-10T20:59:41;6.93;;;6.32;;
42000;SDS011;27689;48.390;10.856;2023-06-10T21:02:25;7.28;;;6.55;;
42000;SDS011;27689;48.390;10.856;2023-06-10T21:05:09;7.03;;;6.32;;
42000;SDS011;27689;48.390;10.856;2023-06-10T21:07:53;7.70;;;6.70;;
42000;SDS011;27689;48.390;10.856;2023-06-10T21:10:37;7.00;;;6.30;;
42000;SDS011;27689;48.390;10.856;2023-06-10T21:13:21;7.22;;;6.50;;
42000;SDS011;27689;48.390;10.856;2023-06-10T21:16:05;7.28;;;6.68;;
42000;SDS011;27689;48.390;10.856;2023-06-10T21:18:49;7.63;;;6.93;;
42000;SDS011;27689;48.390;10.856;2023-06-10T21:21:33;7.35;;;6.65;;
42000;SDS011;27689;48.390;10.856;2023-06-10T21:24:17;7.22;;;6.53;;
42000;SDS011;27689;48.390;10.856;2023-06-10T21:27:05;7.78;;;6.97;;
42000;SDS011;27689;48.390;10.856;2023-06-10T21:29:53;7.00;;;6.30;;
42000;SDS011;27689;48.390;10.856;2023-06-10T21:32:37;7.88;;;7.18;;
42000;SDS011;27689;48.390;10.856;2023-06-10T21:35:20;7.72;;;7.03;;
42000;SDS011;27689;48.390;10.856;2023-06-10T21:38:04;8.55;;;7.75;;
42000;SDS011;27689;48.390;10.856;2023-06-10T21:40:49;7.10;;;6.50;;
42000;SDS011;27689;48.390;10.856;2023-06-10T21:43:37;8.05;;;7.03;;
42000;SDS011;27689;48.390;10.856;2023-06-10T21:46:21;7.05;;;6.35;;
42000;SDS011;27689;48.390;10.856;2023-06-10T21:49:06;7.22;;;6.53;;
42000;SDS011;27689;48.390;10.856;2023-06-10T21:51:50;7.50;;;6.72;;
42000;SDS011;27689;48.390;10.856;2023-06-10T21:54:34;7.85;;;7.10;;
42000;SDS011;27689;48.390;10.856;2023-06-10T21:57:20;8.32;;;6.70;;
42000;SDS011;27689;48.390;10.856;2023-06-10T22:00:06;8.30;;;7.50;;
42000;SDS011;27689;48.390;10.856;2023-06-10T22:02:54;7.68;;;6.93;;
42000;SDS011;27689;48.390;10.856;2023-06-10T22:05:38;7.95;;;7.07;;
42000;SDS011;27689;48.390;10.856;2023-06-10T22:08:22;7.88;;;7.07;;
42000;SDS011;27689;48.390;10.856;2023-06-10T22:11:06;7.65;;;6.95;;
42000;SDS011;27689;48.390;10.856;2023-06-10T22:13:50;7.50;;;6.80;;
42000;SDS011;27689;48.390;10.856;2023-06-10T22:16:34;7.10;;;6.40;;
42000;SDS011;27689;48.390;10.856;2023-06-10T22:19:18;7.03;;;6.35;;
42000;SDS011;27689;48.390;10.856;2023-06-10T22:22:02;8.00;;;7.20;;
42000;SDS011;27689;48.390;10.856;2023-06-10T22:24:46;7.83;;;7.13;;
42000;SDS011;27689;48.390;10.856;2023-06-10T22:27:34;6.80;;;6.18;;
42000;SDS011;27689;48.390;10.856;2023-06-10T22:30:18;7.27;;;6.57;;
42000;SDS011;27689;48.390;10.856;2023-06-10T22:33:01;6.97;;;6.25;;
42000;SDS011;27689;48.390;10.856;2023-06-10T22:35:45;7.97;;;7.18;;
42000;SDS011;27689;48.390;10.856;2023-06-10T22:38:29;7.33;;;6.63;;
42000;SDS011;27689;48.390;10.856;2023-06-10T22:41:13;7.43;;;6.65;;
42000;SDS011;27689;48.390;10.856;2023-06-10T22:43:57;7.45;;;6.65;;
42000;SDS011;27689;48.390;10.856;2023-06-10T22:46:41;7.53;;;6.72;;
42000;SDS011;27689;48.390;10.856;2023-06-10T22:49:25;6.80;;;6.07;;
42000;SDS011;27689;48.390;10.856;2023-06-10T22:52:09;7.93;;;6.50;;
42000;SDS011;27689;48.390;10.856;2023-06-10T22:54:53;7.32;;;6.60;;
42000;SDS011;27689;48.390;10.856;2023-06-10T22:57:37;7.10;;;6.43;;
42000;SDS011;27689;48.390;10.856;2023-06-10T23:00:21;8.23;;;7.43;;
42000;SDS011;27689;48.390;10.856;2023-06-10T23:03:05;7.85;;;7.05;;
42000;SDS011;27689;48.390;10.856;2023-06-10T23:05:49;7.82;;;7.13;;
42000;SDS011;27689;48.390;10.856;2023-06-10T23:08:33;7.95;;;7.15;;
42000;SDS011;27689;48.390;10.856;2023-06-10T23:11:17;8.07;;;6.85;;
42000;SDS011;27689;48.390;10.856;2023-06-10T23:14:01;8.20;;;6.73;;
42000;SDS011;27689;48.390;10.856;2023-06-10T23:16:45;7.68;;;6.75;;
42000;SDS011;27689;48.390;10.856;2023-06-10T23:19:28;7.97;;;7.07;;
42000;SDS011;27689;48.390;10.856;2023-06-10T23:22:12;8.63;;;7.10;;
42000;SDS011;27689;48.390;10.856;2023-06-10T23:24:57;8.13;;;7.20;;
42000;SDS011;27689;48.390;10.856;2023-06-10T23:30:26;8.57;;;6.88;;
42000;SDS011;27689;48.390;10.856;2023-06-10T23:33:09;7.67;;;6.70;;
42000;SDS011;27689;48.390;10.856;2023-06-10T23:35:54;8.17;;;7.37;;
42000;SDS011;27689;48.390;10.856;2023-06-10T23:38:38;8.15;;;6.97;;
42000;SDS011;27689;48.390;10.856;2023-06-10T23:41:21;7.65;;;6.88;;
42000;SDS011;27689;48.390;10.856;2023-06-10T23:44:05;8.50;;;7.60;;
42000;SDS011;27689;48.390;10.856;2023-06-10T23:46:49;7.20;;;6.50;;
42000;SDS011;27689;48.390;10.856;2023-06-10T23:49:33;8.05;;;7.25;;
42000;SDS011;27689;48.390;10.856;2023-06-10T23:52:17;8.35;;;7.47;;
42000;SDS011;27689;48.390;10.856;2023-06-10T23:55:01;7.93;;;7.18;;
42000;SDS011;27689;48.390;10.856;2023-06-10T23:57:45;7.78;;;7.03;;
